createdAt,value
2022-08-26T00:01:15.756Z,94.3
2022-08-26T00:03:13.325Z,94.4
2022-08-26T00:05:10.873Z,94.4
2022-08-26T00:17:04.204Z,94.7
2022-08-26T00:19:01.755Z,94.8
2022-08-26T00:20:59.280Z,94.8
2022-08-26T00:25:02.335Z,94.8
2022-08-26T00:28:57.489Z,94.9
2022-08-26T00:30:55.010Z,94.9
2022-08-26T00:32:52.582Z,95
2022-08-26T00:34:50.152Z,95
2022-08-26T00:36:47.702Z,95.1
2022-08-26T00:38:53.246Z,95.3
2022-08-26T00:40:50.786Z,95.4
2022-08-26T00:42:48.378Z,95.5
2022-08-26T00:43:51.170Z,95.6
2022-08-26T00:45:48.809Z,95.6
2022-08-26T00:47:46.298Z,95.7
2022-08-26T00:49:43.850Z,95.8
2022-08-26T00:51:49.376Z,95.8
2022-08-26T00:53:46.934Z,95.9
2022-08-26T00:55:44.506Z,95.9
2022-08-26T00:57:42.077Z,95.9
2022-08-26T00:59:39.642Z,95.9
2022-08-26T01:01:37.217Z,95.8
2022-08-26T01:03:34.785Z,95.8
2022-08-26T01:07:37.867Z,95.8
2022-08-26T01:09:35.408Z,95.9
2022-08-26T01:11:32.991Z,95.9
2022-08-26T01:13:30.567Z,96
2022-08-26T01:17:25.701Z,96
2022-08-26T01:19:31.252Z,96
2022-08-26T01:21:28.810Z,96
2022-08-26T01:23:26.362Z,96
2022-08-26T01:25:23.900Z,96
2022-08-26T01:27:21.460Z,96.1
2022-08-26T01:33:22.091Z,96.3
2022-08-26T01:37:17.233Z,96.4
2022-08-26T01:42:15.108Z,96.4
2022-08-26T01:44:12.641Z,96.5
2022-08-26T01:50:13.270Z,96.5
2022-08-26T01:52:10.823Z,96.5
2022-08-26T01:54:08.389Z,96.5
2022-08-26T01:56:05.968Z,96.5
2022-08-26T01:58:03.552Z,96.6
2022-08-26T02:00:09.072Z,96.6
2022-08-26T02:02:06.617Z,96.6
2022-08-26T02:04:04.185Z,96.6
2022-08-26T02:06:01.736Z,96.5
2022-08-26T02:07:59.326Z,96.4
2022-08-26T02:09:56.899Z,96.4
2022-08-26T02:13:59.982Z,96.5
2022-08-26T02:15:57.760Z,96.5
2022-08-26T02:17:55.269Z,96.6
2022-08-26T02:19:52.843Z,96.6
2022-08-26T02:21:51.222Z,96.6
2022-08-26T02:23:47.938Z,96.7
2022-08-26T02:25:45.620Z,96.7
2022-08-26T02:27:51.059Z,96.8
2022-08-26T02:29:48.626Z,96.8
2022-08-26T02:31:46.215Z,96.8
2022-08-26T02:34:08.910Z,96.8
2022-08-26T02:36:06.490Z,96.8
2022-08-26T02:38:04.107Z,96.9
2022-08-26T02:44:04.753Z,97.1
2022-08-26T02:46:02.651Z,97
2022-08-26T02:47:59.880Z,97
2022-08-26T02:51:55.036Z,96.9
2022-08-26T02:54:00.573Z,97
2022-08-26T02:55:58.174Z,97
2022-08-26T02:59:53.303Z,97
2022-08-26T03:01:50.915Z,97.1
2022-08-26T03:11:46.744Z,97.2
2022-08-26T03:13:44.303Z,97.1
2022-08-26T03:15:41.879Z,97.1
2022-08-26T03:17:39.465Z,97
2022-08-26T03:19:37.038Z,96.9
2022-08-26T03:21:42.577Z,96.7
2022-08-26T03:23:40.181Z,96.6
2022-08-26T03:25:37.744Z,96.6
2022-08-26T03:28:38.065Z,96.4
2022-08-26T03:30:35.663Z,96.3
2022-08-26T03:32:33.227Z,96.3
2022-08-26T03:34:38.785Z,96.1
2022-08-26T03:36:36.372Z,96.1
2022-08-26T03:38:33.936Z,96
2022-08-26T03:40:31.639Z,96
2022-08-26T03:42:29.089Z,96
2022-08-26T03:44:26.681Z,96.1
2022-08-26T03:46:24.291Z,96.1
2022-08-26T03:48:29.760Z,96.2
2022-08-26T03:50:27.323Z,96.2
2022-08-26T03:58:17.642Z,96.4
2022-08-26T04:00:15.226Z,96.4
2022-08-26T04:02:20.783Z,96.5
2022-08-26T04:04:18.353Z,96.5
2022-08-26T04:06:15.929Z,96.5
2022-08-26T04:08:15.067Z,96.5
2022-08-26T04:10:12.620Z,96.4
2022-08-26T04:12:10.223Z,96.4
2022-08-26T04:14:07.798Z,96.5
2022-08-26T04:16:13.421Z,96.6
2022-08-26T04:18:10.901Z,96.6
2022-08-26T04:20:08.499Z,96.8
2022-08-26T04:21:11.267Z,96.8
2022-08-26T04:23:09.045Z,96.8
2022-08-26T04:25:06.782Z,96.8
2022-08-26T04:27:04.041Z,96.8
2022-08-26T04:29:09.570Z,96.9
2022-08-26T04:31:07.201Z,96.9
2022-08-26T04:33:13.149Z,96.9
2022-08-26T04:35:02.318Z,96.9
2022-08-26T04:36:59.848Z,96.9
2022-08-26T04:38:57.449Z,96.8
2022-08-26T04:40:55.005Z,96.8
2022-08-26T04:43:00.636Z,96.8
2022-08-26T04:44:58.139Z,96.8
2022-08-26T04:46:55.750Z,96.8
2022-08-26T04:48:53.288Z,96.8
2022-08-26T04:50:50.899Z,96.7
2022-08-26T04:54:46.045Z,96.6
2022-08-26T04:58:49.141Z,96.4
2022-08-26T05:00:46.747Z,96.4
2022-08-26T05:02:44.333Z,96.3
2022-08-26T05:04:41.886Z,96.3
2022-08-26T05:06:39.492Z,96.3
2022-08-26T05:08:37.079Z,96.3
2022-08-26T05:10:42.576Z,96.2
2022-08-26T05:12:40.150Z,96.2
2022-08-26T05:14:37.700Z,96.2
2022-08-26T05:17:38.090Z,96.2
2022-08-26T05:19:35.634Z,96.2
2022-08-26T05:21:33.202Z,96.2
2022-08-26T05:23:38.715Z,96.2
2022-08-26T05:25:36.272Z,96.2
2022-08-26T05:27:33.831Z,96.2
2022-08-26T05:31:29.051Z,96.2
2022-08-26T05:35:24.104Z,96
2022-08-26T05:37:29.633Z,95.9
2022-08-26T05:39:27.179Z,95.8
2022-08-26T05:41:24.750Z,95.7
2022-08-26T05:45:19.879Z,95.5
2022-08-26T05:47:17.437Z,95.5
2022-08-26T05:49:15.019Z,95.5
2022-08-26T05:51:25.335Z,95.5
2022-08-26T05:53:18.110Z,95.6
2022-08-26T05:55:15.681Z,95.6
2022-08-26T05:57:13.241Z,95.6
2022-08-26T05:59:14.076Z,95.6
2022-08-26T06:01:08.359Z,95.6
2022-08-26T06:03:05.990Z,95.6
2022-08-26T06:05:11.927Z,95.5
2022-08-26T06:07:09.893Z,95.4
2022-08-26T06:09:06.637Z,95.4
2022-08-26T06:11:33.538Z,95.2
2022-08-26T06:13:31.964Z,95.1
2022-08-26T06:17:34.167Z,94.9
2022-08-26T06:19:33.053Z,94.9
2022-08-26T06:21:29.306Z,94.9
2022-08-26T06:25:24.439Z,94.7
2022-08-26T06:27:21.985Z,94.7
2022-08-26T06:29:24.584Z,94.6
2022-08-26T06:31:25.148Z,94.5
2022-08-26T06:33:22.645Z,94.5
2022-08-26T06:35:20.211Z,94.4
2022-08-26T06:37:17.813Z,94.3
2022-08-26T06:39:15.368Z,94.2
2022-08-26T06:41:12.931Z,94.1
2022-08-26T06:43:10.478Z,93.8
2022-08-26T06:45:16.012Z,93.4
2022-08-26T06:47:13.571Z,93.2
2022-08-26T06:49:11.143Z,93
2022-08-26T06:55:03.864Z,92.9
2022-08-26T06:57:01.335Z,92.8
2022-08-26T06:59:07.707Z,92.5
2022-08-26T07:01:11.385Z,92.3
2022-08-26T07:04:04.725Z,92
2022-08-26T07:06:02.294Z,92
2022-08-26T07:07:59.837Z,91.9
2022-08-26T07:09:57.574Z,91.8
2022-08-26T07:12:03.094Z,91.8
2022-08-26T07:14:00.447Z,91.7
2022-08-26T07:15:58.168Z,91.6
2022-08-26T07:17:55.562Z,91.6
2022-08-26T07:19:53.117Z,91.5
2022-08-26T07:21:50.639Z,91.4
2022-08-26T07:23:48.202Z,91.4
2022-08-26T07:25:53.697Z,91.3
2022-08-26T07:33:43.907Z,90.9
2022-08-26T07:37:39.239Z,90.6
2022-08-26T07:39:44.499Z,90.4
2022-08-26T07:41:42.074Z,90.4
2022-08-26T07:43:39.572Z,90.3
2022-08-26T07:45:37.108Z,90.2
2022-08-26T07:47:34.642Z,90.2
2022-08-26T07:49:32.244Z,90.2
2022-08-26T07:51:29.709Z,90.2
2022-08-26T07:53:35.218Z,90.2
2022-08-26T07:55:32.759Z,90.2
2022-08-26T07:57:30.285Z,90.1
2022-08-26T07:58:33.042Z,90
2022-08-26T08:00:30.594Z,89.9
2022-08-26T08:02:28.141Z,89.8
2022-08-26T08:04:26.684Z,89.7
2022-08-26T08:06:31.189Z,89.7
2022-08-26T08:08:29.179Z,89.7
2022-08-26T08:10:26.640Z,89.6
2022-08-26T08:12:23.748Z,89.6
2022-08-26T08:14:22.373Z,89.3
2022-08-26T08:16:18.842Z,89.1
2022-08-26T08:20:21.812Z,88.3
2022-08-26T08:22:19.724Z,88.1
2022-08-26T08:24:16.857Z,88
2022-08-26T08:26:14.369Z,87.8
2022-08-26T08:28:11.880Z,87.7
2022-08-26T08:30:09.422Z,87.6
2022-08-26T08:32:11.559Z,87.4
2022-08-26T08:34:12.454Z,87
2022-08-26T08:36:09.963Z,87
2022-08-26T08:38:07.565Z,87.1
2022-08-26T08:40:05.076Z,87.1
2022-08-26T08:42:02.562Z,87.2
2022-08-26T08:44:00.101Z,87.1
2022-08-26T08:45:57.617Z,87.1
2022-08-26T08:48:03.074Z,87.3
2022-08-26T08:50:00.596Z,87.5
2022-08-26T08:51:58.116Z,87.7
2022-08-26T08:54:58.382Z,88.1
2022-08-26T08:56:55.942Z,88.2
2022-08-26T08:58:53.485Z,88
2022-08-26T09:00:58.955Z,87.8
2022-08-26T09:02:56.455Z,87.7
2022-08-26T09:04:53.983Z,87.7
2022-08-26T09:06:51.575Z,87.8
2022-08-26T09:08:50.096Z,87.8
2022-08-26T09:10:46.544Z,87.9
2022-08-26T09:12:44.070Z,87.9
2022-08-26T09:16:47.160Z,88.4
2022-08-26T09:18:46.159Z,88.7
2022-08-26T09:20:42.170Z,88.8
2022-08-26T09:22:39.681Z,89.1
2022-08-26T09:24:41.824Z,89.2
2022-08-26T09:26:34.734Z,89.2
2022-08-26T09:28:40.253Z,89.2
2022-08-26T09:30:37.833Z,89.1
2022-08-26T09:32:35.295Z,88.9
2022-08-26T09:36:30.337Z,88.2
2022-08-26T09:38:28.152Z,87.3
2022-08-26T09:42:30.908Z,86.6
2022-08-26T09:44:28.423Z,86.4
2022-08-26T09:48:51.709Z,85.9
2022-08-26T09:50:48.094Z,85.6
2022-08-26T09:56:48.648Z,85.7
2022-08-26T10:00:43.711Z,86.2
2022-08-26T10:02:41.571Z,86.2
2022-08-26T10:04:38.800Z,86.2
2022-08-26T10:06:36.282Z,86.2
2022-08-26T10:08:41.785Z,86.2
2022-08-26T10:10:39.291Z,86.2
2022-08-26T10:12:36.803Z,86.3
2022-08-26T10:14:34.423Z,86.3
2022-08-26T10:16:31.893Z,86.4
2022-08-26T10:18:33.663Z,86.3
2022-08-26T10:20:26.941Z,86.1
2022-08-26T10:22:32.441Z,85.7
2022-08-26T10:24:29.955Z,85.5
2022-08-26T10:26:27.489Z,85.1
2022-08-26T10:28:24.986Z,84.8
2022-08-26T10:32:20.089Z,84.3
2022-08-26T10:34:17.585Z,84
2022-08-26T10:36:23.066Z,83.6
2022-08-26T10:40:18.170Z,83.1
2022-08-26T10:41:20.849Z,82.8
2022-08-26T10:43:18.374Z,82.6
2022-08-26T10:45:15.864Z,82.3
2022-08-26T10:51:16.379Z,81.8
2022-08-26T10:53:13.925Z,81.7
2022-08-26T10:55:11.438Z,81.6
2022-08-26T10:57:09.595Z,81.5
2022-08-26T10:59:06.464Z,81.3
2022-08-26T11:01:10.168Z,81
2022-08-26T11:03:09.585Z,80.5
2022-08-26T11:05:06.975Z,80.3
2022-08-26T11:07:04.482Z,80.2
2022-08-26T11:09:02.129Z,80.2
2022-08-26T11:10:59.511Z,80.4
2022-08-26T11:12:57.008Z,80.5
2022-08-26T11:14:59.053Z,80.6
2022-08-26T11:17:00.082Z,80.8
2022-08-26T11:18:57.491Z,80.8
2022-08-26T11:24:49.978Z,81.1
2022-08-26T11:26:56.367Z,81.1
2022-08-26T11:28:44.972Z,81.3
2022-08-26T11:30:56.996Z,81.3
2022-08-26T11:32:48.741Z,81.2
2022-08-26T11:34:45.435Z,80.8
2022-08-26T11:41:40.670Z,79.9
2022-08-26T11:47:42.005Z,79.3
2022-08-26T11:49:38.586Z,79.4
2022-08-26T11:51:40.453Z,79.6
2022-08-26T11:53:33.637Z,79.5
2022-08-26T11:55:31.091Z,79.4
2022-08-26T11:57:36.543Z,79.1
2022-08-26T12:03:29.218Z,78.3
2022-08-26T12:07:24.453Z,77.5
2022-08-26T12:09:21.537Z,77.1
2022-08-26T12:15:21.982Z,76.5
2022-08-26T12:17:19.477Z,76.5
2022-08-26T12:19:17.005Z,76.7
2022-08-26T12:21:14.463Z,76.8
2022-08-26T12:23:11.965Z,76.9
2022-08-26T12:25:17.437Z,77
2022-08-26T12:27:14.911Z,77.1
2022-08-26T12:29:20.177Z,77.2
2022-08-26T12:30:15.182Z,77.4
2022-08-26T12:32:12.698Z,77.5
2022-08-26T12:34:17.678Z,77.7
2022-08-26T12:36:07.672Z,77.9
2022-08-26T12:38:13.174Z,78.6
2022-08-26T12:40:10.691Z,78.8
2022-08-26T12:42:08.080Z,79.3
2022-08-26T12:44:05.585Z,79.5
2022-08-26T12:46:03.188Z,79.9
2022-08-26T12:48:00.583Z,80.1
2022-08-26T12:52:03.584Z,80.6
2022-08-26T12:54:01.051Z,80.8
2022-08-26T12:55:58.637Z,80.8
2022-08-26T12:57:56.066Z,80.9
2022-08-26T12:59:53.581Z,80.9
2022-08-26T13:01:51.279Z,80.7
2022-08-26T13:03:48.653Z,80.5
2022-08-26T13:05:54.097Z,80.2
2022-08-26T13:09:49.154Z,80.1
2022-08-26T13:11:46.686Z,80.2
2022-08-26T13:13:44.183Z,80.6
2022-08-26T13:15:41.697Z,80.8
2022-08-26T13:17:39.210Z,81.1
2022-08-26T13:21:42.220Z,81.8
2022-08-26T13:23:42.548Z,81.8
2022-08-26T13:26:06.593Z,81.6
2022-08-26T13:28:04.145Z,81.5
2022-08-26T13:30:01.653Z,81.4
2022-08-26T13:32:07.222Z,81.1
2022-08-26T13:34:04.647Z,80.9
2022-08-26T13:36:02.164Z,80.9
2022-08-26T13:37:59.663Z,80.5
2022-08-26T13:49:52.754Z,79.6
2022-08-26T13:51:50.220Z,79.4
2022-08-26T13:53:47.791Z,78.7
2022-08-26T13:57:42.805Z,77.7
2022-08-26T14:03:43.271Z,76.4
2022-08-26T14:05:40.763Z,76.4
2022-08-26T14:07:38.238Z,76
2022-08-26T14:09:38.438Z,76
2022-08-26T14:11:37.002Z,76
2022-08-26T14:13:38.713Z,76.3
2022-08-26T14:17:33.730Z,77.1
2022-08-26T14:18:41.519Z,77.4
2022-08-26T14:20:34.001Z,77.7
2022-08-26T14:24:28.971Z,78.1
2022-08-26T14:26:34.484Z,78.6
2022-08-26T14:30:29.491Z,79.5
2022-08-26T14:32:26.984Z,80
2022-08-26T14:34:24.531Z,80.4
2022-08-26T14:36:21.984Z,80.7
2022-08-26T14:40:25.009Z,81
2022-08-26T14:42:22.476Z,81
2022-08-26T14:44:19.948Z,81
2022-08-26T14:48:14.942Z,80.9
2022-08-26T14:50:12.456Z,81
2022-08-26T14:52:09.978Z,81.1
2022-08-26T14:56:16.595Z,81.3
2022-08-26T14:58:10.678Z,81.3
2022-08-26T15:04:03.074Z,81.6
2022-08-26T15:06:00.585Z,81.6
2022-08-26T15:10:03.651Z,81.7
2022-08-26T15:12:01.206Z,81.8
2022-08-26T15:13:03.865Z,81.7
2022-08-26T15:15:01.583Z,81.7
2022-08-26T15:16:58.943Z,81.5
2022-08-26T15:18:56.452Z,81.1
2022-08-26T15:21:01.935Z,80.6
2022-08-26T15:23:03.329Z,80.3
2022-08-26T15:24:57.050Z,79.8
2022-08-26T15:26:54.579Z,79.6
2022-08-26T15:28:52.097Z,79.3
2022-08-26T15:30:51.283Z,78.9
2022-08-26T15:32:48.648Z,78.3
2022-08-26T15:34:54.147Z,78
2022-08-26T15:38:49.233Z,77.9
2022-08-26T15:42:44.247Z,77.7
2022-08-26T15:44:41.787Z,77.5
2022-08-26T15:46:39.452Z,77.1
2022-08-26T15:52:39.953Z,76.6
2022-08-26T15:54:37.500Z,76.4
2022-08-26T15:56:35.014Z,76.4
2022-08-26T15:58:32.556Z,76.3
2022-08-26T16:00:30.109Z,76.3
2022-08-26T16:02:35.604Z,76.3
2022-08-26T16:04:33.109Z,76.5
2022-08-26T16:06:30.611Z,76.6
2022-08-26T16:09:30.919Z,76.7
2022-08-26T16:13:25.960Z,76.4
2022-08-26T16:15:31.459Z,76.4
2022-08-26T16:17:29.018Z,76.3
2022-08-26T16:19:26.551Z,76.3
2022-08-26T16:23:21.582Z,76.2
2022-08-26T16:25:19.119Z,76.1
2022-08-26T16:27:16.670Z,76
2022-08-26T16:29:22.162Z,76.1
2022-08-26T16:33:21.533Z,76.1
2022-08-26T16:39:09.840Z,75.8
2022-08-26T16:41:07.360Z,75.5
2022-08-26T16:47:07.896Z,75.3
2022-08-26T16:53:00.667Z,75.6
2022-08-26T16:54:58.068Z,75.7
2022-08-26T16:57:03.580Z,76
2022-08-26T16:59:01.033Z,76.1
2022-08-26T17:00:58.553Z,76.2
2022-08-26T17:03:26.316Z,76.1
2022-08-26T17:05:23.880Z,76.2
2022-08-26T17:07:21.405Z,76.2
2022-08-26T17:09:26.966Z,76.4
2022-08-26T17:11:24.472Z,76.3
2022-08-26T17:13:34.898Z,76.5
2022-08-26T17:15:19.708Z,76.4
2022-08-26T17:17:21.857Z,76.3
2022-08-26T17:19:14.700Z,76.2
2022-08-26T17:21:12.222Z,76.1
2022-08-26T17:23:17.711Z,76.2
2022-08-26T17:25:15.227Z,76.3
2022-08-26T17:27:12.744Z,76.4
2022-08-26T17:29:10.398Z,76.4
2022-08-26T17:31:07.888Z,76.4
2022-08-26T17:33:10.615Z,76.4
2022-08-26T17:35:03.081Z,76.3
2022-08-26T17:37:08.527Z,76.3
2022-08-26T17:39:05.925Z,76.5
2022-08-26T17:41:04.154Z,76.8
2022-08-26T17:46:56.771Z,77.5
2022-08-26T17:48:54.347Z,77.7
2022-08-26T17:52:57.581Z,78.3
2022-08-26T17:54:54.929Z,78.6
2022-08-26T17:55:57.811Z,78.9
2022-08-26T17:57:55.246Z,79.1
2022-08-26T17:59:52.853Z,79.1
2022-08-26T18:01:50.465Z,79.2
2022-08-26T18:04:00.164Z,79.3
2022-08-26T18:05:53.398Z,79.2
2022-08-26T18:07:50.943Z,79.1
2022-08-26T18:09:48.495Z,79
2022-08-26T18:11:46.041Z,78.9
2022-08-26T18:13:47.048Z,78.8
2022-08-26T18:17:46.669Z,78.6
2022-08-26T18:19:44.257Z,78.6
2022-08-26T18:21:41.787Z,78.5
2022-08-26T18:25:36.904Z,78.3
2022-08-26T18:27:34.452Z,78.3
2022-08-26T18:29:32.019Z,78.3
2022-08-26T18:33:35.074Z,77.9
2022-08-26T18:35:32.673Z,77.8
2022-08-26T18:37:31.606Z,77.5
2022-08-26T18:39:27.763Z,77.4
2022-08-26T18:41:25.368Z,77.3
2022-08-26T18:43:22.875Z,77.3
2022-08-26T18:45:28.435Z,77.1
2022-08-26T18:47:25.995Z,77
2022-08-26T18:49:23.599Z,76.9
2022-08-26T18:52:23.941Z,76.8
2022-08-26T18:54:21.871Z,76.7
2022-08-26T18:56:19.100Z,76.8
2022-08-26T18:58:24.628Z,77.1
2022-08-26T19:00:22.204Z,77.1
2022-08-26T19:02:19.863Z,77.1
2022-08-26T19:04:17.328Z,77.2
2022-08-26T19:06:14.991Z,77.3
2022-08-26T19:08:12.495Z,77.3
2022-08-26T19:10:10.278Z,77.4
2022-08-26T19:12:15.663Z,77.4
2022-08-26T19:14:13.177Z,77.4
2022-08-26T19:18:08.355Z,77.4
2022-08-26T19:20:05.878Z,77.5
2022-08-26T19:24:01.143Z,77.7
2022-08-26T19:26:06.574Z,77.8
2022-08-26T19:28:04.113Z,77.8
2022-08-26T19:30:01.926Z,77.7
2022-08-26T19:31:59.296Z,77.7
2022-08-26T19:33:56.819Z,77.6
2022-08-26T19:35:54.394Z,77.6
2022-08-26T19:37:51.976Z,77.5
2022-08-26T19:39:57.571Z,77.7
2022-08-26T19:41:55.100Z,77.7
2022-08-26T19:43:52.665Z,77.8
2022-08-26T19:44:55.479Z,78
2022-08-26T19:46:53.033Z,78
2022-08-26T19:50:48.142Z,77.7
2022-08-26T19:52:53.686Z,77.5
2022-08-26T19:54:51.239Z,77.4
2022-08-26T19:56:49.824Z,77.3
2022-08-26T19:58:46.448Z,77.2
2022-08-26T20:00:43.987Z,77.3
2022-08-26T20:02:41.653Z,77.2
2022-08-26T20:04:39.159Z,77.2
2022-08-26T20:06:44.736Z,77.1
2022-08-26T20:08:42.332Z,77.2
2022-08-26T20:14:35.002Z,77
2022-08-26T20:16:32.667Z,76.9
2022-08-26T20:18:30.320Z,76.7
2022-08-26T20:20:35.731Z,76.4
2022-08-26T20:22:33.348Z,76.2
2022-08-26T20:28:26.100Z,75.9
2022-08-26T20:30:23.688Z,75.8
2022-08-26T20:32:21.326Z,75.8
2022-08-26T20:34:26.775Z,75.7
2022-08-26T20:38:21.987Z,75.6
2022-08-26T20:40:48.887Z,75.2
2022-08-26T20:44:49.406Z,74.8
2022-08-26T20:48:47.142Z,74.3
2022-08-26T20:50:44.715Z,74.4
2022-08-26T20:52:42.561Z,74.4
2022-08-26T20:54:39.848Z,74.3
2022-08-26T20:56:37.547Z,74.3
2022-08-26T20:58:34.974Z,74.2
2022-08-26T21:00:40.627Z,74
2022-08-26T21:02:38.103Z,73.9
2022-08-26T21:04:35.807Z,74
2022-08-26T21:06:33.322Z,74.1
2022-08-26T21:14:33.084Z,74.5
2022-08-26T21:22:23.411Z,74.6
2022-08-26T21:24:21.026Z,74.8
2022-08-26T21:26:18.597Z,74.8
2022-08-26T21:28:24.159Z,74.6
2022-08-26T21:30:21.735Z,74.6
2022-08-26T21:32:19.399Z,74.5
2022-08-26T21:33:22.094Z,74.6
2022-08-26T21:35:19.701Z,74.6
2022-08-26T21:37:17.291Z,74.7
2022-08-26T21:39:15.015Z,74.7
2022-08-26T21:41:20.436Z,74.8
2022-08-26T21:43:25.992Z,74.7
2022-08-26T21:45:15.590Z,74.7
2022-08-26T21:47:13.229Z,74.6
2022-08-26T21:49:10.834Z,74.7
2022-08-26T21:57:09.111Z,75
2022-08-26T21:59:06.690Z,75
2022-08-26T22:01:04.341Z,75
2022-08-26T22:04:59.432Z,75
2022-08-26T22:06:57.003Z,75
2022-08-26T22:09:02.627Z,75.1
2022-08-26T22:11:00.140Z,75.1
2022-08-26T22:14:55.313Z,75.2
2022-08-26T22:16:52.924Z,75.2
2022-08-26T22:22:53.614Z,75.4
2022-08-26T22:26:48.849Z,75.8
2022-08-26T22:27:51.620Z,75.9
2022-08-26T22:29:49.209Z,76.1
2022-08-26T22:31:46.877Z,76.2
2022-08-26T22:33:44.416Z,76.3
2022-08-26T22:35:49.954Z,76.4
2022-08-26T22:39:45.142Z,76.5
2022-08-26T22:41:42.719Z,76.6
2022-08-26T22:43:40.334Z,76.7
2022-08-26T22:45:37.974Z,76.8
2022-08-26T22:47:35.512Z,76.9
2022-08-26T22:49:41.073Z,77.3
2022-08-26T22:51:38.698Z,77.5
2022-08-26T22:53:36.297Z,77.6
2022-08-26T22:55:33.893Z,77.8
2022-08-26T23:03:32.318Z,78.3
2022-08-26T23:05:29.876Z,78.5
2022-08-26T23:07:27.454Z,78.6
2022-08-26T23:09:25.037Z,78.7
2022-08-26T23:11:22.652Z,78.9
2022-08-26T23:13:20.275Z,78.9
2022-08-26T23:15:17.897Z,79
2022-08-26T23:17:23.451Z,79.2
2022-08-26T23:19:21.103Z,79.3
2022-08-26T23:21:18.900Z,79.4
2022-08-26T23:24:19.111Z,79.5
2022-08-26T23:26:17.739Z,79.6
2022-08-26T23:28:14.316Z,79.8
2022-08-26T23:30:19.869Z,80
2022-08-26T23:32:17.492Z,80
2022-08-26T23:34:15.101Z,80.1
2022-08-26T23:36:17.458Z,80
2022-08-26T23:38:10.420Z,80
2022-08-26T23:40:07.993Z,79.9
2022-08-26T23:42:05.585Z,79.8
2022-08-26T23:44:11.093Z,79.8
2022-08-26T23:48:06.528Z,79.7
2022-08-26T23:50:03.963Z,79.6
2022-08-26T23:59:59.996Z,79.4
